sensor_id;sensor_type;location;lat;lon;timestamp;pressure;altitude;pressure_sealevel;temperature;humidity
22481;BME280;11407;56.964;-2.212;2022-08-19T00:00:28;100408.47;;;23.75;43.69
22481;BME280;11407;56.964;-2.212;2022-08-19T00:02:54;100415.88;;;23.67;44.07
22481;BME280;11407;56.964;-2.212;2022-08-19T00:05:20;100411.13;;;23.56;44.26
22481;BME280;11407;56.964;-2.212;2022-08-19T00:07:47;100398.94;;;23.54;44.18
22481;BME280;11407;56.964;-2.212;2022-08-19T00:10:15;100407.59;;;23.56;44.06
22481;BME280;11407;56.964;-2.212;2022-08-19T00:12:41;100411.75;;;23.45;44.17
22481;BME280;11407;56.964;-2.212;2022-08-19T00:15:09;100419.19;;;23.43;43.91
22481;BME280;11407;56.964;-2.212;2022-08-19T00:17:38;100423.75;;;23.43;44.14
22481;BME280;11407;56.964;-2.212;2022-08-19T00:20:04;100427.88;;;23.32;43.95
22481;BME280;11407;56.964;-2.212;2022-08-19T00:22:30;100425.81;;;23.34;43.97
22481;BME280;11407;56.964;-2.212;2022-08-19T00:24:56;100432.63;;;23.24;44.11
22481;BME280;11407;56.964;-2.212;2022-08-19T00:27:22;100441.50;;;23.18;44.16
22481;BME280;11407;56.964;-2.212;2022-08-19T00:29:47;100447.91;;;23.10;44.40
22481;BME280;11407;56.964;-2.212;2022-08-19T00:32:12;100457.84;;;23.16;44.25
22481;BME280;11407;56.964;-2.212;2022-08-19T00:34:38;100455.97;;;23.10;44.27
22481;BME280;11407;56.964;-2.212;2022-08-19T00:37:04;100453.47;;;23.15;44.37
22481;BME280;11407;56.964;-2.212;2022-08-19T00:39:29;100456.00;;;23.17;44.24
22481;BME280;11407;56.964;-2.212;2022-08-19T00:41:55;100446.88;;;23.11;44.51
22481;BME280;11407;56.964;-2.212;2022-08-19T00:44:25;100434.03;;;23.07;44.43
22481;BME280;11407;56.964;-2.212;2022-08-19T00:46:53;100446.41;;;23.01;44.57
22481;BME280;11407;56.964;-2.212;2022-08-19T00:49:29;100442.28;;;23.05;44.52
22481;BME280;11407;56.964;-2.212;2022-08-19T00:52:35;100442.72;;;23.09;44.29
22481;BME280;11407;56.964;-2.212;2022-08-19T00:55:04;100435.06;;;23.06;44.30
22481;BME280;11407;56.964;-2.212;2022-08-19T00:57:36;100442.88;;;23.01;44.48
22481;BME280;11407;56.964;-2.212;2022-08-19T01:00:08;100437.28;;;22.96;44.19
22481;BME280;11407;56.964;-2.212;2022-08-19T01:02:37;100441.78;;;22.82;44.42
22481;BME280;11407;56.964;-2.212;2022-08-19T01:05:05;100452.34;;;22.84;44.32
22481;BME280;11407;56.964;-2.212;2022-08-19T01:07:33;100452.91;;;22.73;44.50
22481;BME280;11407;56.964;-2.212;2022-08-19T01:09:59;100447.09;;;22.70;44.63
22481;BME280;11407;56.964;-2.212;2022-08-19T01:12:24;100448.13;;;22.62;44.62
22481;BME280;11407;56.964;-2.212;2022-08-19T01:14:51;100459.22;;;22.53;45.02
22481;BME280;11407;56.964;-2.212;2022-08-19T01:17:17;100452.88;;;22.60;44.89
22481;BME280;11407;56.964;-2.212;2022-08-19T01:19:45;100463.44;;;22.68;44.74
22481;BME280;11407;56.964;-2.212;2022-08-19T01:22:16;100455.78;;;22.72;44.73
22481;BME280;11407;56.964;-2.212;2022-08-19T01:24:45;100470.03;;;22.66;44.88
22481;BME280;11407;56.964;-2.212;2022-08-19T01:27:10;100481.34;;;22.55;45.01
22481;BME280;11407;56.964;-2.212;2022-08-19T01:29:39;100484.81;;;22.49;44.75
22481;BME280;11407;56.964;-2.212;2022-08-19T01:32:06;100475.97;;;22.55;44.97
22481;BME280;11407;56.964;-2.212;2022-08-19T01:34:32;100472.66;;;22.53;44.75
22481;BME280;11407;56.964;-2.212;2022-08-19T01:36:59;100476.63;;;22.57;44.56
22481;BME280;11407;56.964;-2.212;2022-08-19T01:39:27;100483.78;;;22.50;44.72
22481;BME280;11407;56.964;-2.212;2022-08-19T01:41:53;100483.13;;;22.41;44.51
22481;BME280;11407;56.964;-2.212;2022-08-19T01:44:19;100487.25;;;22.37;44.28
22481;BME280;11407;56.964;-2.212;2022-08-19T01:46:48;100489.81;;;22.24;44.62
22481;BME280;11407;56.964;-2.212;2022-08-19T01:49:15;100493.47;;;22.17;44.71
22481;BME280;11407;56.964;-2.212;2022-08-19T01:51:41;100493.00;;;22.07;44.81
22481;BME280;11407;56.964;-2.212;2022-08-19T01:54:09;100492.59;;;22.10;44.80
22481;BME280;11407;56.964;-2.212;2022-08-19T01:56:35;100492.69;;;21.95;45.11
22481;BME280;11407;56.964;-2.212;2022-08-19T01:59:05;100496.69;;;22.06;44.96
22481;BME280;11407;56.964;-2.212;2022-08-19T02:01:32;100493.16;;;22.05;44.56
22481;BME280;11407;56.964;-2.212;2022-08-19T02:03:59;100486.97;;;22.05;44.74
22481;BME280;11407;56.964;-2.212;2022-08-19T02:06:26;100488.97;;;21.96;44.91
22481;BME280;11407;56.964;-2.212;2022-08-19T02:08:52;100484.94;;;21.80;45.32
22481;BME280;11407;56.964;-2.212;2022-08-19T02:11:21;100495.56;;;21.94;45.19
22481;BME280;11407;56.964;-2.212;2022-08-19T02:13:47;100491.22;;;21.93;44.93
22481;BME280;11407;56.964;-2.212;2022-08-19T02:16:15;100498.31;;;22.00;44.90
22481;BME280;11407;56.964;-2.212;2022-08-19T02:18:41;100504.03;;;21.70;45.33
22481;BME280;11407;56.964;-2.212;2022-08-19T02:21:06;100500.75;;;21.75;45.54
22481;BME280;11407;56.964;-2.212;2022-08-19T02:23:32;100495.03;;;21.78;45.49
22481;BME280;11407;56.964;-2.212;2022-08-19T02:25:57;100491.97;;;21.81;45.35
22481;BME280;11407;56.964;-2.212;2022-08-19T02:28:23;100493.41;;;21.83;45.56
22481;BME280;11407;56.964;-2.212;2022-08-19T02:30:48;100502.41;;;21.96;45.30
22481;BME280;11407;56.964;-2.212;2022-08-19T02:33:14;100496.38;;;21.94;45.31
22481;BME280;11407;56.964;-2.212;2022-08-19T02:35:46;100497.66;;;21.98;45.51
22481;BME280;11407;56.964;-2.212;2022-08-19T02:38:12;100497.81;;;21.90;45.77
22481;BME280;11407;56.964;-2.212;2022-08-19T02:40:54;100502.34;;;21.90;45.61
22481;BME280;11407;56.964;-2.212;2022-08-19T02:43:20;100497.13;;;21.82;45.78
22481;BME280;11407;56.964;-2.212;2022-08-19T02:45:46;100487.47;;;21.87;46.44
22481;BME280;11407;56.964;-2.212;2022-08-19T02:48:17;100498.13;;;21.81;45.87
22481;BME280;11407;56.964;-2.212;2022-08-19T02:50:44;100494.00;;;21.79;46.05
22481;BME280;11407;56.964;-2.212;2022-08-19T02:53:10;100498.88;;;21.69;46.28
22481;BME280;11407;56.964;-2.212;2022-08-19T02:55:35;100488.34;;;21.94;45.96
22481;BME280;11407;56.964;-2.212;2022-08-19T02:58:01;100485.13;;;22.05;45.64
22481;BME280;11407;56.964;-2.212;2022-08-19T03:00:26;100491.81;;;22.16;45.41
22481;BME280;11407;56.964;-2.212;2022-08-19T03:02:53;100496.53;;;22.14;45.56
22481;BME280;11407;56.964;-2.212;2022-08-19T03:05:18;100505.56;;;22.06;45.72
22481;BME280;11407;56.964;-2.212;2022-08-19T03:07:44;100502.13;;;22.12;45.59
22481;BME280;11407;56.964;-2.212;2022-08-19T03:10:10;100506.25;;;22.15;45.58
22481;BME280;11407;56.964;-2.212;2022-08-19T03:12:37;100526.91;;;22.14;45.75
22481;BME280;11407;56.964;-2.212;2022-08-19T03:15:07;100521.09;;;22.11;45.74
22481;BME280;11407;56.964;-2.212;2022-08-19T03:17:34;100512.66;;;22.14;46.03
22481;BME280;11407;56.964;-2.212;2022-08-19T03:19:59;100518.22;;;22.12;45.96
22481;BME280;11407;56.964;-2.212;2022-08-19T03:22:25;100515.94;;;22.09;45.97
22481;BME280;11407;56.964;-2.212;2022-08-19T03:24:50;100513.97;;;21.97;46.47
22481;BME280;11407;56.964;-2.212;2022-08-19T03:27:16;100526.34;;;22.19;45.91
22481;BME280;11407;56.964;-2.212;2022-08-19T03:29:42;100516.06;;;22.29;46.12
22481;BME280;11407;56.964;-2.212;2022-08-19T03:32:09;100527.53;;;22.37;45.73
22481;BME280;11407;56.964;-2.212;2022-08-19T03:34:37;100530.41;;;22.36;46.02
22481;BME280;11407;56.964;-2.212;2022-08-19T03:37:06;100528.19;;;22.39;45.98
22481;BME280;11407;56.964;-2.212;2022-08-19T03:39:32;100531.34;;;22.49;45.74
22481;BME280;11407;56.964;-2.212;2022-08-19T03:41:57;100518.28;;;22.46;45.58
22481;BME280;11407;56.964;-2.212;2022-08-19T03:44:25;100519.69;;;22.42;45.21
22481;BME280;11407;56.964;-2.212;2022-08-19T03:46:55;100525.53;;;22.52;45.61
22481;BME280;11407;56.964;-2.212;2022-08-19T03:49:23;100526.94;;;22.42;45.83
22481;BME280;11407;56.964;-2.212;2022-08-19T03:51:50;100527.91;;;22.34;45.90
22481;BME280;11407;56.964;-2.212;2022-08-19T03:54:19;100527.13;;;22.40;45.97
22481;BME280;11407;56.964;-2.212;2022-08-19T03:56:46;100527.16;;;22.47;45.68
22481;BME280;11407;56.964;-2.212;2022-08-19T03:59:15;100533.56;;;22.46;45.70
22481;BME280;11407;56.964;-2.212;2022-08-19T04:01:42;100540.81;;;22.45;45.69
22481;BME280;11407;56.964;-2.212;2022-08-19T04:04:07;100538.94;;;22.46;45.76
22481;BME280;11407;56.964;-2.212;2022-08-19T04:06:35;100544.94;;;22.48;45.57
22481;BME280;11407;56.964;-2.212;2022-08-19T04:09:03;100542.00;;;22.36;45.88
22481;BME280;11407;56.964;-2.212;2022-08-19T04:11:34;100548.69;;;22.53;45.37
22481;BME280;11407;56.964;-2.212;2022-08-19T04:14:00;100544.56;;;22.51;45.43
22481;BME280;11407;56.964;-2.212;2022-08-19T04:16:27;100557.13;;;22.44;45.55
22481;BME280;11407;56.964;-2.212;2022-08-19T04:18:59;100551.81;;;22.50;45.66
22481;BME280;11407;56.964;-2.212;2022-08-19T04:21:26;100558.41;;;22.54;45.75
22481;BME280;11407;56.964;-2.212;2022-08-19T04:23:53;100545.78;;;22.48;45.89
22481;BME280;11407;56.964;-2.212;2022-08-19T04:26:24;100542.50;;;22.53;45.42
22481;BME280;11407;56.964;-2.212;2022-08-19T04:28:51;100537.47;;;22.43;45.68
22481;BME280;11407;56.964;-2.212;2022-08-19T04:31:19;100538.75;;;22.47;45.83
22481;BME280;11407;56.964;-2.212;2022-08-19T04:33:45;100546.09;;;22.32;46.16
22481;BME280;11407;56.964;-2.212;2022-08-19T04:36:19;100549.25;;;22.42;46.47
22481;BME280;11407;56.964;-2.212;2022-08-19T04:38:48;100561.09;;;22.54;46.12
22481;BME280;11407;56.964;-2.212;2022-08-19T04:41:15;100562.00;;;22.61;46.05
22481;BME280;11407;56.964;-2.212;2022-08-19T04:43:59;100567.97;;;22.63;45.70
22481;BME280;11407;56.964;-2.212;2022-08-19T04:46:25;100573.66;;;22.75;46.06
22481;BME280;11407;56.964;-2.212;2022-08-19T04:48:51;100570.81;;;22.89;45.63
22481;BME280;11407;56.964;-2.212;2022-08-19T04:51:16;100573.31;;;22.84;45.42
22481;BME280;11407;56.964;-2.212;2022-08-19T04:53:42;100575.75;;;22.79;45.75
22481;BME280;11407;56.964;-2.212;2022-08-19T04:56:13;100561.66;;;22.77;45.83
22481;BME280;11407;56.964;-2.212;2022-08-19T04:58:40;100568.78;;;22.91;45.62
22481;BME280;11407;56.964;-2.212;2022-08-19T05:01:17;100566.47;;;22.88;45.71
22481;BME280;11407;56.964;-2.212;2022-08-19T05:03:42;100561.53;;;22.85;45.53
22481;BME280;11407;56.964;-2.212;2022-08-19T05:06:10;100565.03;;;22.85;45.61
22481;BME280;11407;56.964;-2.212;2022-08-19T05:08:38;100567.75;;;22.92;45.55
22481;BME280;11407;56.964;-2.212;2022-08-19T05:11:10;100577.06;;;22.89;45.72
22481;BME280;11407;56.964;-2.212;2022-08-19T05:13:36;100567.97;;;22.90;45.75
22481;BME280;11407;56.964;-2.212;2022-08-19T05:16:02;100572.53;;;22.96;45.81
22481;BME280;11407;56.964;-2.212;2022-08-19T05:18:28;100584.94;;;22.97;45.78
22481;BME280;11407;56.964;-2.212;2022-08-19T05:21:15;100576.06;;;23.03;46.40
22481;BME280;11407;56.964;-2.212;2022-08-19T05:23:59;100581.75;;;23.15;45.74
22481;BME280;11407;56.964;-2.212;2022-08-19T05:26:25;100586.78;;;23.24;46.61
22481;BME280;11407;56.964;-2.212;2022-08-19T05:28:52;100586.25;;;23.55;46.43
22481;BME280;11407;56.964;-2.212;2022-08-19T05:31:18;100591.06;;;23.72;46.56
22481;BME280;11407;56.964;-2.212;2022-08-19T05:33:44;100587.81;;;24.02;46.38
22481;BME280;11407;56.964;-2.212;2022-08-19T05:36:09;100589.72;;;24.28;46.69
22481;BME280;11407;56.964;-2.212;2022-08-19T05:38:35;100599.91;;;24.52;46.49
22481;BME280;11407;56.964;-2.212;2022-08-19T05:41:06;100599.81;;;24.90;46.03
22481;BME280;11407;56.964;-2.212;2022-08-19T05:43:31;100606.22;;;25.15;46.06
22481;BME280;11407;56.964;-2.212;2022-08-19T05:45:57;100607.44;;;25.26;45.78
22481;BME280;11407;56.964;-2.212;2022-08-19T05:48:23;100617.72;;;25.42;44.97
22481;BME280;11407;56.964;-2.212;2022-08-19T05:50:48;100607.44;;;25.63;45.21
22481;BME280;11407;56.964;-2.212;2022-08-19T05:53:16;100599.09;;;25.71;44.52
22481;BME280;11407;56.964;-2.212;2022-08-19T05:55:41;100600.75;;;25.78;44.39
22481;BME280;11407;56.964;-2.212;2022-08-19T05:58:07;100602.56;;;25.91;44.89
22481;BME280;11407;56.964;-2.212;2022-08-19T06:00:33;100605.09;;;26.10;43.99
22481;BME280;11407;56.964;-2.212;2022-08-19T06:02:59;100608.03;;;26.09;44.53
22481;BME280;11407;56.964;-2.212;2022-08-19T06:05:29;100605.88;;;26.17;44.35
22481;BME280;11407;56.964;-2.212;2022-08-19T06:07:55;100602.38;;;26.10;44.38
22481;BME280;11407;56.964;-2.212;2022-08-19T06:10:21;100597.16;;;26.15;43.82
22481;BME280;11407;56.964;-2.212;2022-08-19T06:12:47;100598.13;;;26.27;43.85
22481;BME280;11407;56.964;-2.212;2022-08-19T06:15:13;100598.78;;;26.23;43.71
22481;BME280;11407;56.964;-2.212;2022-08-19T06:17:39;100595.91;;;26.18;43.72
22481;BME280;11407;56.964;-2.212;2022-08-19T06:20:09;100594.69;;;26.38;43.68
22481;BME280;11407;56.964;-2.212;2022-08-19T06:22:42;100599.88;;;26.15;43.82
22481;BME280;11407;56.964;-2.212;2022-08-19T06:25:08;100598.41;;;26.19;44.13
22481;BME280;11407;56.964;-2.212;2022-08-19T06:27:35;100600.63;;;26.22;43.75
22481;BME280;11407;56.964;-2.212;2022-08-19T06:30:01;100598.94;;;26.28;43.63
22481;BME280;11407;56.964;-2.212;2022-08-19T06:32:27;100604.84;;;26.18;43.77
22481;BME280;11407;56.964;-2.212;2022-08-19T06:34:52;100596.41;;;26.08;43.13
22481;BME280;11407;56.964;-2.212;2022-08-19T06:37:18;100600.56;;;26.04;43.74
22481;BME280;11407;56.964;-2.212;2022-08-19T06:39:44;100602.66;;;26.02;43.82
22481;BME280;11407;56.964;-2.212;2022-08-19T06:42:11;100605.94;;;26.11;43.44
22481;BME280;11407;56.964;-2.212;2022-08-19T06:44:40;100611.84;;;25.95;44.12
22481;BME280;11407;56.964;-2.212;2022-08-19T06:47:08;100602.28;;;25.99;44.15
22481;BME280;11407;56.964;-2.212;2022-08-19T06:49:34;100603.63;;;25.83;44.22
22481;BME280;11407;56.964;-2.212;2022-08-19T06:52:00;100618.22;;;25.69;44.23
22481;BME280;11407;56.964;-2.212;2022-08-19T06:54:26;100620.28;;;25.80;44.61
22481;BME280;11407;56.964;-2.212;2022-08-19T06:56:55;100611.59;;;25.65;44.80
22481;BME280;11407;56.964;-2.212;2022-08-19T06:59:22;100617.84;;;25.66;44.16
22481;BME280;11407;56.964;-2.212;2022-08-19T07:01:53;100618.84;;;25.71;44.68
22481;BME280;11407;56.964;-2.212;2022-08-19T07:04:23;100617.44;;;25.62;44.01
22481;BME280;11407;56.964;-2.212;2022-08-19T07:06:50;100610.72;;;25.78;43.88
22481;BME280;11407;56.964;-2.212;2022-08-19T07:09:17;100605.50;;;25.83;44.39
22481;BME280;11407;56.964;-2.212;2022-08-19T07:11:45;100610.09;;;25.76;43.72
22481;BME280;11407;56.964;-2.212;2022-08-19T07:14:12;100622.97;;;25.74;44.41
22481;BME280;11407;56.964;-2.212;2022-08-19T07:16:39;100625.28;;;25.70;43.74
22481;BME280;11407;56.964;-2.212;2022-08-19T07:19:05;100609.47;;;25.74;44.46
22481;BME280;11407;56.964;-2.212;2022-08-19T07:21:30;100617.59;;;25.67;44.50
22481;BME280;11407;56.964;-2.212;2022-08-19T07:23:56;100626.31;;;25.69;44.30
22481;BME280;11407;56.964;-2.212;2022-08-19T07:26:26;100631.53;;;25.64;44.42
22481;BME280;11407;56.964;-2.212;2022-08-19T07:28:52;100627.16;;;25.63;44.44
22481;BME280;11407;56.964;-2.212;2022-08-19T07:31:21;100628.25;;;25.62;44.96
22481;BME280;11407;56.964;-2.212;2022-08-19T07:33:49;100633.78;;;25.74;44.75
22481;BME280;11407;56.964;-2.212;2022-08-19T07:36:24;100624.91;;;25.60;44.80
22481;BME280;11407;56.964;-2.212;2022-08-19T07:38:51;100632.50;;;25.76;44.72
22481;BME280;11407;56.964;-2.212;2022-08-19T07:41:22;100631.84;;;25.87;44.57
22481;BME280;11407;56.964;-2.212;2022-08-19T07:43:48;100643.31;;;25.83;44.02
22481;BME280;11407;56.964;-2.212;2022-08-19T07:46:14;100638.31;;;25.86;44.18
22481;BME280;11407;56.964;-2.212;2022-08-19T07:48:42;100649.56;;;25.83;44.37
22481;BME280;11407;56.964;-2.212;2022-08-19T07:51:13;100641.38;;;25.96;44.61
22481;BME280;11407;56.964;-2.212;2022-08-19T07:53:39;100654.44;;;25.99;44.31
22481;BME280;11407;56.964;-2.212;2022-08-19T07:56:05;100657.31;;;26.04;44.65
22481;BME280;11407;56.964;-2.212;2022-08-19T07:58:32;100661.28;;;26.02;44.31
22481;BME280;11407;56.964;-2.212;2022-08-19T08:00:58;100657.81;;;25.88;45.05
22481;BME280;11407;56.964;-2.212;2022-08-19T08:03:24;100663.84;;;25.90;44.07
22481;BME280;11407;56.964;-2.212;2022-08-19T08:06:11;100662.84;;;26.16;44.13
22481;BME280;11407;56.964;-2.212;2022-08-19T08:08:56;100668.94;;;26.42;43.66
22481;BME280;11407;56.964;-2.212;2022-08-19T08:11:58;100668.09;;;26.42;43.20
22481;BME280;11407;56.964;-2.212;2022-08-19T08:14:37;100680.72;;;26.54;43.89
22481;BME280;11407;56.964;-2.212;2022-08-19T08:17:05;100675.44;;;26.59;44.34
22481;BME280;11407;56.964;-2.212;2022-08-19T08:19:31;100672.03;;;26.70;43.40
22481;BME280;11407;56.964;-2.212;2022-08-19T08:21:59;100671.31;;;26.81;43.42
22481;BME280;11407;56.964;-2.212;2022-08-19T08:24:26;100675.28;;;26.23;44.54
22481;BME280;11407;56.964;-2.212;2022-08-19T08:26:52;100675.97;;;26.74;44.01
22481;BME280;11407;56.964;-2.212;2022-08-19T08:29:18;100661.13;;;27.01;43.47
22481;BME280;11407;56.964;-2.212;2022-08-19T08:31:44;100666.34;;;27.02;43.32
22481;BME280;11407;56.964;-2.212;2022-08-19T08:34:12;100663.84;;;27.01;43.31
22481;BME280;11407;56.964;-2.212;2022-08-19T08:36:39;100660.72;;;27.22;43.11
22481;BME280;11407;56.964;-2.212;2022-08-19T08:39:13;100656.38;;;27.21;42.06
22481;BME280;11407;56.964;-2.212;2022-08-19T08:47:04;100657.41;;;27.55;42.10
22481;BME280;11407;56.964;-2.212;2022-08-19T08:49:43;100664.63;;;27.61;41.13
22481;BME280;11407;56.964;-2.212;2022-08-19T08:52:15;100671.09;;;27.43;42.46
22481;BME280;11407;56.964;-2.212;2022-08-19T08:54:46;100666.44;;;27.49;42.59
22481;BME280;11407;56.964;-2.212;2022-08-19T08:57:25;100659.00;;;27.45;41.62
22481;BME280;11407;56.964;-2.212;2022-08-19T08:59:54;100653.81;;;27.44;42.13
22481;BME280;11407;56.964;-2.212;2022-08-19T09:02:22;100656.56;;;27.55;42.32
22481;BME280;11407;56.964;-2.212;2022-08-19T09:04:48;100636.28;;;27.46;42.42
22481;BME280;11407;56.964;-2.212;2022-08-19T09:07:30;100633.94;;;27.49;41.41
22481;BME280;11407;56.964;-2.212;2022-08-19T09:10:09;100638.00;;;27.76;41.78
22481;BME280;11407;56.964;-2.212;2022-08-19T09:16:06;100614.03;;;27.91;42.14
22481;BME280;11407;56.964;-2.212;2022-08-19T09:18:42;100617.25;;;27.70;42.23
22481;BME280;11407;56.964;-2.212;2022-08-19T09:21:07;100620.34;;;27.85;41.67
22481;BME280;11407;56.964;-2.212;2022-08-19T09:23:35;100618.38;;;27.92;41.70
22481;BME280;11407;56.964;-2.212;2022-08-19T09:26:00;100622.00;;;27.86;41.36
22481;BME280;11407;56.964;-2.212;2022-08-19T09:28:26;100630.22;;;27.80;41.76
22481;BME280;11407;56.964;-2.212;2022-08-19T09:30:52;100619.00;;;28.06;41.18
22481;BME280;11407;56.964;-2.212;2022-08-19T09:33:18;100617.84;;;28.13;41.04
22481;BME280;11407;56.964;-2.212;2022-08-19T09:35:43;100629.03;;;28.35;41.23
22481;BME280;11407;56.964;-2.212;2022-08-19T09:38:09;100645.63;;;28.27;40.73
22481;BME280;11407;56.964;-2.212;2022-08-19T09:40:34;100643.31;;;28.12;41.17
22481;BME280;11407;56.964;-2.212;2022-08-19T09:43:00;100640.50;;;28.19;41.05
22481;BME280;11407;56.964;-2.212;2022-08-19T09:45:28;100639.41;;;28.08;40.47
22481;BME280;11407;56.964;-2.212;2022-08-19T09:47:54;100635.13;;;28.30;40.15
22481;BME280;11407;56.964;-2.212;2022-08-19T09:50:20;100633.16;;;28.37;40.63
22481;BME280;11407;56.964;-2.212;2022-08-19T09:52:46;100638.22;;;28.34;40.95
22481;BME280;11407;56.964;-2.212;2022-08-19T09:55:11;100636.78;;;28.31;39.57
22481;BME280;11407;56.964;-2.212;2022-08-19T09:57:37;100646.25;;;28.40;40.67
22481;BME280;11407;56.964;-2.212;2022-08-19T10:00:05;100645.66;;;28.49;39.92
22481;BME280;11407;56.964;-2.212;2022-08-19T10:02:31;100639.19;;;28.50;40.14
22481;BME280;11407;56.964;-2.212;2022-08-19T10:04:57;100643.19;;;28.48;39.94
22481;BME280;11407;56.964;-2.212;2022-08-19T10:07:41;100641.19;;;28.43;40.37
22481;BME280;11407;56.964;-2.212;2022-08-19T10:10:07;100615.00;;;28.49;40.19
22481;BME280;11407;56.964;-2.212;2022-08-19T10:12:33;100619.84;;;28.58;39.73
22481;BME280;11407;56.964;-2.212;2022-08-19T10:14:59;100617.00;;;28.65;39.75
22481;BME280;11407;56.964;-2.212;2022-08-19T10:17:25;100617.97;;;28.59;39.76
22481;BME280;11407;56.964;-2.212;2022-08-19T10:19:51;100613.63;;;28.69;39.84
22481;BME280;11407;56.964;-2.212;2022-08-19T10:22:18;100621.72;;;28.58;39.95
22481;BME280;11407;56.964;-2.212;2022-08-19T10:24:46;100620.91;;;28.57;40.03
22481;BME280;11407;56.964;-2.212;2022-08-19T10:27:11;100618.19;;;28.69;39.37
22481;BME280;11407;56.964;-2.212;2022-08-19T10:29:38;100626.22;;;28.64;39.97
22481;BME280;11407;56.964;-2.212;2022-08-19T10:32:06;100616.69;;;28.84;38.97
22481;BME280;11407;56.964;-2.212;2022-08-19T10:34:35;100627.06;;;28.76;39.50
22481;BME280;11407;56.964;-2.212;2022-08-19T10:37:02;100618.69;;;28.89;38.98
22481;BME280;11407;56.964;-2.212;2022-08-19T10:39:30;100618.53;;;28.72;39.10
22481;BME280;11407;56.964;-2.212;2022-08-19T10:41:55;100609.22;;;28.80;38.75
22481;BME280;11407;56.964;-2.212;2022-08-19T10:44:22;100618.34;;;28.97;38.29
22481;BME280;11407;56.964;-2.212;2022-08-19T10:46:49;100627.78;;;29.06;38.44
22481;BME280;11407;56.964;-2.212;2022-08-19T10:49:14;100626.94;;;29.17;38.70
22481;BME280;11407;56.964;-2.212;2022-08-19T10:51:40;100625.19;;;28.99;38.04
22481;BME280;11407;56.964;-2.212;2022-08-19T10:54:35;100632.75;;;28.86;37.84
22481;BME280;11407;56.964;-2.212;2022-08-19T10:57:19;100630.50;;;29.06;37.89
22481;BME280;11407;56.964;-2.212;2022-08-19T10:59:45;100620.44;;;29.18;38.02
22481;BME280;11407;56.964;-2.212;2022-08-19T11:02:11;100628.22;;;29.26;38.31
22481;BME280;11407;56.964;-2.212;2022-08-19T11:04:39;100635.16;;;29.33;38.00
22481;BME280;11407;56.964;-2.212;2022-08-19T11:07:06;100650.03;;;29.42;38.04
22481;BME280;11407;56.964;-2.212;2022-08-19T11:09:37;100655.72;;;29.40;36.36
22481;BME280;11407;56.964;-2.212;2022-08-19T11:12:04;100663.28;;;29.38;37.25
22481;BME280;11407;56.964;-2.212;2022-08-19T11:14:30;100661.97;;;29.41;38.18
22481;BME280;11407;56.964;-2.212;2022-08-19T11:16:56;100660.06;;;29.30;37.59
22481;BME280;11407;56.964;-2.212;2022-08-19T11:19:22;100662.34;;;29.22;36.41
22481;BME280;11407;56.964;-2.212;2022-08-19T11:21:50;100662.91;;;29.24;38.00
22481;BME280;11407;56.964;-2.212;2022-08-19T11:24:21;100663.63;;;29.31;35.64
22481;BME280;11407;56.964;-2.212;2022-08-19T11:26:49;100667.78;;;29.22;36.90
22481;BME280;11407;56.964;-2.212;2022-08-19T11:29:16;100665.06;;;29.44;37.63
22481;BME280;11407;56.964;-2.212;2022-08-19T11:31:45;100662.69;;;29.48;37.39
22481;BME280;11407;56.964;-2.212;2022-08-19T11:34:14;100669.66;;;29.55;36.93
22481;BME280;11407;56.964;-2.212;2022-08-19T11:36:43;100667.66;;;29.51;37.02
22481;BME280;11407;56.964;-2.212;2022-08-19T11:39:12;100658.97;;;29.65;36.77
22481;BME280;11407;56.964;-2.212;2022-08-19T11:41:39;100653.69;;;29.87;37.04
22481;BME280;11407;56.964;-2.212;2022-08-19T11:44:04;100668.66;;;30.01;37.35
22481;BME280;11407;56.964;-2.212;2022-08-19T11:46:31;100658.75;;;30.23;37.04
22481;BME280;11407;56.964;-2.212;2022-08-19T11:48:58;100655.75;;;30.52;36.45
22481;BME280;11407;56.964;-2.212;2022-08-19T11:51:25;100662.94;;;30.58;36.11
22481;BME280;11407;56.964;-2.212;2022-08-19T11:53:52;100651.31;;;30.62;36.43
22481;BME280;11407;56.964;-2.212;2022-08-19T11:56:19;100656.59;;;30.69;35.28
22481;BME280;11407;56.964;-2.212;2022-08-19T11:58:45;100657.34;;;30.64;35.66
22481;BME280;11407;56.964;-2.212;2022-08-19T12:01:12;100650.88;;;30.70;35.54
22481;BME280;11407;56.964;-2.212;2022-08-19T12:03:42;100646.09;;;30.94;35.89
22481;BME280;11407;56.964;-2.212;2022-08-19T12:06:10;100652.66;;;31.14;35.77
22481;BME280;11407;56.964;-2.212;2022-08-19T12:08:41;100661.56;;;31.26;35.41
22481;BME280;11407;56.964;-2.212;2022-08-19T12:11:06;100658.47;;;31.39;35.52
22481;BME280;11407;56.964;-2.212;2022-08-19T12:13:33;100666.75;;;31.49;33.46
22481;BME280;11407;56.964;-2.212;2022-08-19T12:15:59;100661.84;;;31.46;33.92
22481;BME280;11407;56.964;-2.212;2022-08-19T12:18:25;100656.41;;;31.67;34.11
22481;BME280;11407;56.964;-2.212;2022-08-19T12:20:52;100661.91;;;31.72;34.30
22481;BME280;11407;56.964;-2.212;2022-08-19T12:23:20;100656.97;;;31.69;33.94
22481;BME280;11407;56.964;-2.212;2022-08-19T12:25:48;100669.91;;;31.79;33.79
22481;BME280;11407;56.964;-2.212;2022-08-19T12:28:18;100666.16;;;31.85;34.38
22481;BME280;11407;56.964;-2.212;2022-08-19T12:30:44;100666.16;;;31.85;34.75
22481;BME280;11407;56.964;-2.212;2022-08-19T12:33:09;100669.34;;;32.03;34.99
22481;BME280;11407;56.964;-2.212;2022-08-19T12:35:35;100677.38;;;32.10;34.45
22481;BME280;11407;56.964;-2.212;2022-08-19T12:38:00;100688.28;;;32.10;35.06
22481;BME280;11407;56.964;-2.212;2022-08-19T12:40:27;100691.97;;;32.20;35.38
22481;BME280;11407;56.964;-2.212;2022-08-19T12:42:54;100680.47;;;32.18;35.24
22481;BME280;11407;56.964;-2.212;2022-08-19T12:45:20;100683.41;;;32.12;34.53
22481;BME280;11407;56.964;-2.212;2022-08-19T12:47:45;100678.13;;;32.05;34.63
22481;BME280;11407;56.964;-2.212;2022-08-19T12:50:11;100679.63;;;32.18;35.19
22481;BME280;11407;56.964;-2.212;2022-08-19T12:52:37;100676.16;;;32.22;35.20